Time;durP1;ratioP1;P1;durP2;ratioP2;P2;SDS_P1;SDS_P2;PMS_P1;PMS_P2;Temp;Humidity;BMP_temperature;BMP_pressure;BME280_temperature;BME280_humidity;BME280_pressure;Samples;Min_cycle;Max_cycle;Signal;HPM_P1;HPM_P2
2023/08/25 00:00:20;;;;;;;6.53;5.93;;;13.50;99.90;;;;;;4827073;29;20236;-71
2023/08/25 00:02:46;;;;;;;6.70;6.10;;;13.40;99.90;;;;;;4827124;29;20045;-63
2023/08/25 00:05:13;;;;;;;5.72;5.28;;;13.40;99.90;;;;;;4826174;29;20041;-65
2023/08/25 00:07:40;;;;;;;5.95;5.25;;;13.30;99.90;;;;;;4827119;29;20482;-68
2023/08/25 00:10:08;;;;;;;5.30;4.85;;;13.30;99.90;;;;;;4830345;29;20046;-63
2023/08/25 00:12:34;;;;;;;7.78;4.43;;;13.30;99.90;;;;;;4825280;29;20066;-67
2023/08/25 00:15:02;;;;;;;5.55;5.10;;;13.30;99.90;;;;;;4826282;29;20056;-64
2023/08/25 00:17:29;;;;;;;4.95;4.50;;;13.20;99.90;;;;;;4829230;29;20055;-64
2023/08/25 00:19:56;;;;;;;5.13;4.60;;;13.20;99.90;;;;;;4822238;29;20054;-66
2023/08/25 00:22:23;;;;;;;5.22;4.05;;;13.10;99.90;;;;;;4826656;29;20141;-65
2023/08/25 00:24:52;;;;;;;4.15;3.85;;;13.10;99.90;;;;;;4830244;29;20099;-69
2023/08/25 00:27:19;;;;;;;4.78;4.47;;;13.10;99.90;;;;;;4830468;29;20045;-69
2023/08/25 00:29:47;;;;;;;5.03;4.03;;;13.00;99.90;;;;;;4822806;29;20111;-63
2023/08/25 00:32:14;;;;;;;5.75;3.95;;;13.00;99.90;;;;;;4829545;29;20050;-65
2023/08/25 00:34:41;;;;;;;5.10;4.60;;;12.90;99.90;;;;;;4828282;29;20050;-67
2023/08/25 00:37:08;;;;;;;4.15;3.85;;;12.90;99.90;;;;;;4827396;29;20058;-64
2023/08/25 00:39:35;;;;;;;7.90;4.80;;;12.80;99.90;;;;;;4827370;29;20526;-64
2023/08/25 00:42:02;;;;;;;4.03;3.67;;;12.80;99.90;;;;;;4830771;29;20496;-68
2023/08/25 00:44:29;;;;;;;5.10;3.90;;;12.70;99.90;;;;;;4828480;29;20042;-64
2023/08/25 00:46:56;;;;;;;4.85;3.20;;;12.70;99.90;;;;;;4825919;29;20061;-64
2023/08/25 00:49:25;;;;;;;6.47;4.03;;;12.70;99.90;;;;;;4825675;29;20776;-65
2023/08/25 00:51:53;;;;;;;4.47;4.07;;;12.60;99.90;;;;;;4829154;29;20508;-63
2023/08/25 00:54:22;;;;;;;4.60;4.18;;;12.60;99.90;;;;;;4826444;29;20720;-67
2023/08/25 00:56:50;;;;;;;3.58;3.28;;;12.60;99.90;;;;;;4826196;29;20081;-64
2023/08/25 00:59:17;;;;;;;4.18;3.88;;;12.50;99.90;;;;;;4828775;29;20094;-63
2023/08/25 01:01:45;;;;;;;5.43;3.88;;;12.50;99.90;;;;;;4820243;29;20382;-67
2023/08/25 01:04:13;;;;;;;4.30;3.90;;;12.40;99.90;;;;;;4825581;29;20509;-67
2023/08/25 01:06:39;;;;;;;4.55;4.22;;;12.40;99.90;;;;;;4829204;29;20103;-66
2023/08/25 01:09:07;;;;;;;4.15;3.75;;;12.40;99.90;;;;;;4825491;29;20078;-64
2023/08/25 01:11:51;;;;;;;4.93;4.53;;;12.40;99.90;;;;;;4825005;29;20507;-66
2023/08/25 01:14:41;;;;;;;5.70;4.43;;;12.30;99.90;;;;;;4828184;29;20544;-70
2023/08/25 01:17:22;;;;;;;5.38;4.82;;;12.30;99.90;;;;;;4824420;29;20473;-67
2023/08/25 01:20:00;;;;;;;5.60;4.90;;;12.30;99.90;;;;;;4831150;29;20042;-64
2023/08/25 01:22:35;;;;;;;4.68;4.28;;;12.20;99.90;;;;;;4829259;29;20042;-64
2023/08/25 01:25:20;;;;;;;6.80;4.45;;;12.20;99.90;;;;;;4828075;29;20077;-65
2023/08/25 01:27:50;;;;;;;5.40;4.82;;;12.20;99.90;;;;;;4823148;29;20046;-66
2023/08/25 01:30:17;;;;;;;5.20;4.75;;;12.10;99.90;;;;;;4823083;29;20045;-71
2023/08/25 01:32:45;;;;;;;5.22;4.82;;;12.10;99.90;;;;;;4823556;29;20439;-66
2023/08/25 01:35:14;;;;;;;4.47;4.07;;;12.10;99.90;;;;;;4827273;29;20046;-69
2023/08/25 01:37:59;;;;;;;5.32;4.93;;;12.10;99.90;;;;;;4829528;29;20577;-69
2023/08/25 01:41:10;;;;;;;4.53;4.10;;;12.00;99.90;;;;;;4830591;29;20520;-67
2023/08/25 01:43:47;;;;;;;4.72;4.32;;;12.00;99.90;;;;;;4819165;29;20065;-70
2023/08/25 01:46:17;;;;;;;5.22;4.78;;;12.00;99.90;;;;;;4823976;29;20195;-65
2023/08/25 01:48:47;;;;;;;6.57;4.23;;;11.90;99.90;;;;;;4823854;29;20069;-69
2023/08/25 01:51:15;;;;;;;5.55;4.35;;;11.90;99.90;;;;;;4823765;29;20042;-67
2023/08/25 01:53:47;;;;;;;4.93;4.50;;;11.90;99.90;;;;;;4824955;29;20097;-71
2023/08/25 01:56:14;;;;;;;5.68;5.03;;;11.80;99.90;;;;;;4821675;29;20054;-70
2023/08/25 01:58:42;;;;;;;5.07;4.68;;;11.80;99.90;;;;;;4824817;29;20061;-73
2023/08/25 02:01:09;;;;;;;5.25;4.75;;;11.80;99.90;;;;;;4821267;29;20056;-70
2023/08/25 02:03:36;;;;;;;6.10;5.15;;;11.80;99.90;;;;;;4806730;29;20069;-70
2023/08/25 02:06:03;;;;;;;4.78;4.30;;;11.80;99.90;;;;;;4818453;29;20058;-65
2023/08/25 02:08:30;;;;;;;5.55;5.05;;;11.80;99.90;;;;;;4815446;29;20657;-69
2023/08/25 02:10:57;;;;;;;5.40;4.75;;;11.80;99.90;;;;;;4824511;29;20156;-71
2023/08/25 02:13:24;;;;;;;4.65;4.22;;;11.70;99.90;;;;;;4825414;29;20691;-67
2023/08/25 02:15:52;;;;;;;6.32;3.95;;;11.70;99.90;;;;;;4822446;29;20124;-66
2023/08/25 02:18:19;;;;;;;6.28;3.95;;;11.70;99.90;;;;;;4815067;29;20572;-71
2023/08/25 02:20:46;;;;;;;4.82;4.13;;;11.70;99.90;;;;;;4823499;29;20812;-68
2023/08/25 02:23:13;;;;;;;4.70;4.30;;;11.70;99.90;;;;;;4826036;29;20057;-67
2023/08/25 02:25:41;;;;;;;5.60;4.93;;;11.60;99.90;;;;;;4825416;29;21543;-73
2023/08/25 02:28:08;;;;;;;8.02;3.97;;;11.60;99.90;;;;;;4824534;29;20053;-67
2023/08/25 02:30:35;;;;;;;4.00;3.70;;;11.60;99.90;;;;;;4826287;29;20060;-67
2023/08/25 02:33:02;;;;;;;5.75;4.45;;;11.50;99.90;;;;;;4822413;29;20554;-68
2023/08/25 02:35:29;;;;;;;5.88;3.65;;;11.50;99.90;;;;;;4824507;29;20128;-68
2023/08/25 02:38:05;;;;;;;6.63;3.83;;;11.50;99.90;;;;;;4815901;29;20453;-63
2023/08/25 02:40:33;;;;;;;4.57;3.88;;;11.50;99.90;;;;;;4830556;29;20058;-65
2023/08/25 02:43:04;;;;;;;4.15;3.40;;;11.50;99.90;;;;;;4823640;29;20706;-64
2023/08/25 02:45:32;;;;;;;3.78;3.38;;;11.50;99.90;;;;;;4823172;29;20057;-66
2023/08/25 02:47:59;;;;;;;3.72;3.47;;;11.50;99.90;;;;;;4825129;29;20488;-65
2023/08/25 02:50:27;;;;;;;3.65;3.22;;;11.40;99.90;;;;;;4821772;29;20050;-68
2023/08/25 02:52:54;;;;;;;3.85;3.00;;;11.40;99.90;;;;;;4824308;29;20690;-66
2023/08/25 02:55:21;;;;;;;3.55;2.88;;;11.40;99.90;;;;;;4825367;29;20054;-63
2023/08/25 02:57:49;;;;;;;3.05;2.85;;;11.40;99.90;;;;;;4828731;29;20065;-65
2023/08/25 03:00:25;;;;;;;4.72;2.80;;;11.40;99.90;;;;;;4822454;29;20062;-67
2023/08/25 03:02:54;;;;;;;3.50;2.92;;;11.30;99.90;;;;;;4824171;29;20103;-65
2023/08/25 03:05:22;;;;;;;4.78;3.30;;;11.30;99.90;;;;;;4820526;29;20053;-67
2023/08/25 03:07:52;;;;;;;3.28;3.08;;;11.30;99.90;;;;;;4825288;29;20050;-63
2023/08/25 03:10:21;;;;;;;3.42;3.13;;;11.30;99.90;;;;;;4821898;29;20046;-63
2023/08/25 03:12:49;;;;;;;4.05;3.20;;;11.30;99.90;;;;;;4826523;29;20155;-63
2023/08/25 03:15:16;;;;;;;3.42;3.13;;;11.30;99.90;;;;;;4824937;29;20245;-67
2023/08/25 03:17:43;;;;;;;3.80;3.50;;;11.30;99.90;;;;;;4825507;29;20062;-63
2023/08/25 03:20:10;;;;;;;5.47;3.47;;;11.30;99.90;;;;;;4826304;29;20054;-64
2023/08/25 03:22:37;;;;;;;4.65;3.80;;;11.30;99.90;;;;;;4829836;29;20062;-68
2023/08/25 03:25:04;;;;;;;4.05;3.65;;;11.30;99.90;;;;;;4824765;29;20046;-63
2023/08/25 03:27:34;;;;;;;6.13;3.70;;;11.30;99.90;;;;;;4828901;29;20086;-66
2023/08/25 03:30:02;;;;;;;4.18;3.70;;;11.30;99.90;;;;;;4830121;29;20276;-64
2023/08/25 03:32:30;;;;;;;4.78;3.70;;;11.40;99.90;;;;;;4825079;29;20133;-66
2023/08/25 03:34:57;;;;;;;8.07;3.65;;;11.40;99.90;;;;;;4827183;29;20176;-65
2023/08/25 03:37:24;;;;;;;6.28;4.35;;;11.40;99.90;;;;;;4825318;29;20136;-64
2023/08/25 03:39:52;;;;;;;4.35;3.97;;;11.40;99.90;;;;;;4825157;29;20399;-64
2023/08/25 03:42:19;;;;;;;7.43;4.45;;;11.50;99.90;;;;;;4808414;29;20169;-70
2023/08/25 03:44:48;;;;;;;4.13;3.72;;;11.50;99.90;;;;;;4828461;29;20060;-63
2023/08/25 03:47:15;;;;;;;3.45;3.15;;;11.60;99.90;;;;;;4822945;29;20401;-67
2023/08/25 03:49:42;;;;;;;4.78;3.60;;;11.70;99.90;;;;;;4829530;29;20055;-69
2023/08/25 03:52:09;;;;;;;3.65;3.33;;;11.70;99.90;;;;;;4830592;29;20413;-69
2023/08/25 03:54:36;;;;;;;2.72;2.50;;;11.80;99.90;;;;;;4827660;29;20076;-65
2023/08/25 03:57:06;;;;;;;3.17;2.97;;;11.80;99.90;;;;;;4825978;29;20060;-65
2023/08/25 03:59:33;;;;;;;3.40;2.73;;;11.90;99.90;;;;;;4827234;29;20057;-64
2023/08/25 04:02:03;;;;;;;4.07;2.88;;;11.90;99.90;;;;;;4824583;29;20899;-69
2023/08/25 04:04:32;;;;;;;2.63;2.43;;;12.00;99.90;;;;;;4829627;29;20669;-66
2023/08/25 04:06:59;;;;;;;2.65;2.45;;;12.10;99.90;;;;;;4828691;29;20070;-69
2023/08/25 04:09:27;;;;;;;2.55;2.35;;;12.10;99.90;;;;;;4827137;29;20112;-66
2023/08/25 04:11:57;;;;;;;4.05;3.20;;;12.20;99.90;;;;;;4824196;29;20058;-64
2023/08/25 04:14:24;;;;;;;3.92;2.60;;;12.30;99.90;;;;;;4824481;29;20524;-68
2023/08/25 04:16:51;;;;;;;2.13;1.83;;;12.30;99.90;;;;;;4825401;29;20054;-64
2023/08/25 04:19:21;;;;;;;2.33;2.13;;;12.40;99.90;;;;;;4824083;29;20622;-64
2023/08/25 04:21:49;;;;;;;2.47;2.28;;;12.40;99.90;;;;;;4819234;29;20157;-65
2023/08/25 04:24:17;;;;;;;2.15;1.95;;;12.50;99.90;;;;;;4830710;29;20050;-66
2023/08/25 04:26:44;;;;;;;6.82;3.53;;;12.60;99.90;;;;;;4823753;29;20905;-65
2023/08/25 04:29:11;;;;;;;2.75;2.42;;;12.60;99.90;;;;;;4809848;29;20050;-63
2023/08/25 04:31:39;;;;;;;3.75;3.45;;;12.70;99.90;;;;;;4824955;29;20061;-69
2023/08/25 04:34:06;;;;;;;4.03;3.72;;;12.70;99.90;;;;;;4831436;29;21452;-67
2023/08/25 04:36:36;;;;;;;3.15;2.85;;;12.80;99.90;;;;;;4817870;29;20516;-65
2023/08/25 04:39:03;;;;;;;4.20;3.80;;;12.90;99.90;;;;;;4831091;29;20082;-67
2023/08/25 04:41:31;;;;;;;4.82;3.88;;;12.90;99.90;;;;;;4809509;29;20095;-65
2023/08/25 04:43:58;;;;;;;9.20;4.57;;;13.00;99.90;;;;;;4822927;29;20148;-67
2023/08/25 04:46:28;;;;;;;4.80;4.35;;;13.10;99.90;;;;;;4821522;29;20042;-65
2023/08/25 04:48:56;;;;;;;3.58;3.28;;;13.10;99.90;;;;;;4823091;29;20493;-63
2023/08/25 04:51:23;;;;;;;3.88;3.58;;;13.20;99.90;;;;;;4821757;29;20058;-63
2023/08/25 04:53:50;;;;;;;4.15;3.75;;;13.30;99.90;;;;;;4823485;29;20134;-66
2023/08/25 04:56:18;;;;;;;5.05;4.10;;;13.30;99.90;;;;;;4819279;29;20050;-63
2023/08/25 04:58:45;;;;;;;5.35;4.32;;;13.40;99.90;;;;;;4826420;29;20410;-66
2023/08/25 05:01:14;;;;;;;4.35;3.95;;;13.40;99.90;;;;;;4827130;29;20050;-67
2023/08/25 05:03:42;;;;;;;8.70;4.82;;;13.50;99.90;;;;;;4827055;29;20050;-64
2023/08/25 05:06:11;;;;;;;6.13;5.53;;;13.60;99.90;;;;;;4824507;29;20541;-68
2023/08/25 05:08:38;;;;;;;6.65;4.88;;;13.70;99.90;;;;;;4824245;29;20781;-65
2023/08/25 05:11:05;;;;;;;8.32;6.68;;;13.80;99.90;;;;;;4821641;29;20119;-65
2023/08/25 05:13:32;;;;;;;7.20;6.45;;;13.80;99.90;;;;;;4827865;29;20066;-68
2023/08/25 05:16:00;;;;;;;7.82;6.68;;;13.90;99.90;;;;;;4822553;29;20082;-74
2023/08/25 05:18:43;;;;;;;7.47;6.25;;;14.00;99.90;;;;;;4827528;29;20628;-67
2023/08/25 05:21:11;;;;;;;9.00;6.93;;;14.10;99.90;;;;;;4829156;29;20061;-66
2023/08/25 05:23:42;;;;;;;11.43;7.60;;;14.20;99.90;;;;;;4824003;29;20057;-68
2023/08/25 05:26:09;;;;;;;17.17;7.70;;;14.20;99.90;;;;;;4818332;29;20148;-65
2023/08/25 05:28:36;;;;;;;10.13;8.65;;;14.30;99.90;;;;;;4827058;29;20141;-63
2023/08/25 05:31:03;;;;;;;12.15;8.52;;;14.40;99.90;;;;;;4825569;29;20462;-68
2023/08/25 05:33:52;;;;;;;10.15;9.15;;;14.50;99.90;;;;;;4819248;29;20068;-64
2023/08/25 05:36:32;;;;;;;12.50;10.88;;;14.60;99.90;;;;;;4826853;29;20149;-69
2023/08/25 05:38:59;;;;;;;11.70;9.75;;;14.70;99.90;;;;;;4829134;29;20086;-64
2023/08/25 05:41:26;;;;;;;13.85;10.32;;;14.80;99.90;;;;;;4825921;29;20144;-70
2023/08/25 05:43:53;;;;;;;13.20;11.55;;;14.90;99.90;;;;;;4827834;29;20390;-64
2023/08/25 05:46:20;;;;;;;14.80;11.15;;;15.00;99.90;;;;;;4814980;29;20138;-66
2023/08/25 05:48:46;;;;;;;17.23;11.30;;;15.10;99.90;;;;;;4825230;29;20061;-67
2023/08/25 05:51:13;;;;;;;15.57;12.57;;;15.10;99.90;;;;;;4823402;29;20049;-67
2023/08/25 05:53:41;;;;;;;12.93;9.30;;;15.20;99.90;;;;;;4828231;29;20061;-63
2023/08/25 05:56:09;;;;;;;13.65;10.98;;;15.20;99.90;;;;;;4827236;29;20045;-69
2023/08/25 05:58:35;;;;;;;17.65;10.73;;;15.30;99.90;;;;;;4825274;29;20062;-63
2023/08/25 06:01:02;;;;;;;13.40;9.55;;;15.40;99.90;;;;;;4825026;29;20050;-67
2023/08/25 06:03:29;;;;;;;13.43;11.23;;;15.40;99.90;;;;;;4826727;29;20049;-68
2023/08/25 06:05:56;;;;;;;15.02;10.13;;;15.50;99.90;;;;;;4825980;29;20060;-69
2023/08/25 06:08:23;;;;;;;13.18;10.80;;;15.60;99.90;;;;;;4826738;29;20049;-68
2023/08/25 06:10:52;;;;;;;9.68;8.65;;;15.60;99.90;;;;;;4824758;29;20130;-66
2023/08/25 06:13:19;;;;;;;12.45;10.57;;;15.70;99.90;;;;;;4828383;29;20394;-66
2023/08/25 06:15:46;;;;;;;11.25;10.15;;;15.80;99.90;;;;;;4829097;29;20125;-63
2023/08/25 06:18:13;;;;;;;13.68;12.07;;;15.90;99.90;;;;;;4827396;29;20064;-65
2023/08/25 06:20:41;;;;;;;15.20;11.38;;;15.90;99.90;;;;;;4824538;29;20077;-66
2023/08/25 06:23:08;;;;;;;13.93;11.23;;;16.00;99.90;;;;;;4823428;29;20046;-70
2023/08/25 06:25:36;;;;;;;11.95;9.68;;;16.00;99.90;;;;;;4823786;29;20061;-65
2023/08/25 06:28:03;;;;;;;14.23;11.82;;;16.00;99.90;;;;;;4829049;29;20524;-67
2023/08/25 06:30:31;;;;;;;13.07;10.05;;;16.20;99.90;;;;;;4824469;29;20133;-64
2023/08/25 06:32:58;;;;;;;15.45;12.20;;;16.30;99.90;;;;;;4821900;29;20050;-68
2023/08/25 06:35:25;;;;;;;11.82;10.20;;;16.40;99.90;;;;;;4824885;29;20060;-70
2023/08/25 06:37:52;;;;;;;13.07;8.73;;;16.40;99.90;;;;;;4823034;29;20052;-66
2023/08/25 06:40:20;;;;;;;16.17;10.32;;;16.60;99.90;;;;;;4828160;29;20389;-71
2023/08/25 06:42:47;;;;;;;9.85;8.45;;;16.60;99.90;;;;;;4828785;29;20454;-65
2023/08/25 06:45:14;;;;;;;10.00;8.65;;;16.70;99.90;;;;;;4826653;29;20046;-64
2023/08/25 06:47:42;;;;;;;8.88;8.18;;;16.80;99.90;;;;;;4823500;29;20133;-68
2023/08/25 06:50:10;;;;;;;12.02;8.20;;;16.90;99.90;;;;;;4826850;29;20497;-64
2023/08/25 06:52:37;;;;;;;9.85;7.40;;;16.90;99.90;;;;;;4826705;29;20573;-68
2023/08/25 06:55:04;;;;;;;8.48;7.40;;;17.00;99.90;;;;;;4831657;29;20137;-65
2023/08/25 06:57:33;;;;;;;7.70;6.90;;;17.00;99.90;;;;;;4831051;29;20066;-65
2023/08/25 07:00:00;;;;;;;8.65;6.65;;;17.00;99.90;;;;;;4832926;29;20049;-70
2023/08/25 07:02:27;;;;;;;7.50;5.00;;;17.00;99.90;;;;;;4827757;29;20049;-66
2023/08/25 07:04:54;;;;;;;9.13;6.00;;;17.10;99.90;;;;;;4831037;29;20068;-65
2023/08/25 07:07:25;;;;;;;8.10;7.28;;;17.10;99.90;;;;;;4826556;29;20055;-70
2023/08/25 07:09:53;;;;;;;7.22;5.72;;;17.10;99.90;;;;;;4830096;29;20102;-65
2023/08/25 07:12:20;;;;;;;7.75;6.88;;;17.10;99.90;;;;;;4827214;29;20116;-70
2023/08/25 07:14:47;;;;;;;7.00;5.75;;;17.10;99.90;;;;;;4830138;29;20141;-73
2023/08/25 07:17:14;;;;;;;10.38;6.80;;;17.10;99.90;;;;;;4832587;29;20560;-67
2023/08/25 07:19:41;;;;;;;6.85;5.65;;;17.10;99.90;;;;;;4834198;29;20186;-63
2023/08/25 07:22:08;;;;;;;6.53;5.97;;;17.10;99.90;;;;;;4827119;29;20128;-75
2023/08/25 07:24:35;;;;;;;7.43;6.10;;;17.10;99.90;;;;;;4829328;29;20061;-70
2023/08/25 07:27:02;;;;;;;7.38;6.28;;;17.10;99.90;;;;;;4830109;29;20142;-68
2023/08/25 07:29:29;;;;;;;7.30;5.75;;;17.10;99.90;;;;;;4828091;29;20042;-72
2023/08/25 07:31:56;;;;;;;7.05;6.45;;;17.10;99.90;;;;;;4824980;29;20115;-67
2023/08/25 07:34:23;;;;;;;7.28;5.70;;;17.00;99.90;;;;;;4829644;29;20157;-68
2023/08/25 07:36:52;;;;;;;7.28;6.55;;;17.00;99.90;;;;;;4828694;29;20042;-69
2023/08/25 07:39:19;;;;;;;10.85;5.68;;;17.00;99.90;;;;;;4823992;29;20074;-71
2023/08/25 07:41:46;;;;;;;7.47;5.43;;;17.00;99.90;;;;;;4831708;29;20130;-66
2023/08/25 07:44:13;;;;;;;8.43;6.25;;;17.10;99.90;;;;;;4829981;29;20042;-68
2023/08/25 07:46:40;;;;;;;6.97;5.63;;;17.10;99.90;;;;;;4826997;29;20102;-71
2023/08/25 07:49:08;;;;;;;5.93;5.35;;;17.10;99.90;;;;;;4829077;29;20042;-66
2023/08/25 07:51:38;;;;;;;8.00;6.28;;;17.20;99.90;;;;;;4831519;29;20075;-68
2023/08/25 07:54:07;;;;;;;5.43;4.75;;;17.20;99.90;;;;;;4827382;29;20045;-68
2023/08/25 07:56:34;;;;;;;7.57;6.18;;;17.30;99.90;;;;;;4831987;29;20497;-65
2023/08/25 07:59:01;;;;;;;6.40;5.80;;;17.40;99.90;;;;;;4831031;29;20054;-64
2023/08/25 08:01:28;;;;;;;13.18;6.13;;;17.40;99.90;;;;;;4830223;29;20042;-66
2023/08/25 08:03:55;;;;;;;7.10;5.63;;;17.40;99.90;;;;;;4828798;29;20137;-66
2023/08/25 08:06:22;;;;;;;7.40;4.68;;;17.50;99.90;;;;;;4828535;29;20045;-67
2023/08/25 08:08:49;;;;;;;7.30;5.07;;;17.50;99.90;;;;;;4825697;29;20080;-64
2023/08/25 08:11:15;;;;;;;6.80;5.40;;;17.50;99.90;;;;;;4824629;29;20054;-68
2023/08/25 08:13:42;;;;;;;5.88;5.28;;;17.60;99.90;;;;;;4827617;29;20049;-68
2023/08/25 08:16:09;;;;;;;6.07;5.20;;;17.60;99.90;;;;;;4832574;29;20137;-65
2023/08/25 08:18:36;;;;;;;5.97;4.70;;;17.60;99.90;;;;;;4824711;29;20077;-70
2023/08/25 08:21:03;;;;;;;5.53;5.03;;;17.60;99.90;;;;;;4826241;29;20050;-69
2023/08/25 08:23:30;;;;;;;6.05;4.18;;;17.60;99.90;;;;;;4826791;29;20057;-68
2023/08/25 08:25:58;;;;;;;7.43;4.88;;;17.70;99.90;;;;;;4825870;29;20060;-65
2023/08/25 08:28:25;;;;;;;11.95;4.97;;;17.70;99.90;;;;;;4820387;29;20471;-69
2023/08/25 08:30:52;;;;;;;6.43;5.13;;;17.80;99.90;;;;;;4827086;29;20073;-68
2023/08/25 08:33:19;;;;;;;5.65;4.63;;;17.80;99.90;;;;;;4823898;29;20044;-65
2023/08/25 08:35:46;;;;;;;7.07;5.47;;;17.80;99.90;;;;;;4828820;29;20054;-70
2023/08/25 08:38:13;;;;;;;4.80;4.40;;;17.80;99.90;;;;;;4826195;29;20055;-64
2023/08/25 08:40:40;;;;;;;9.00;5.28;;;17.90;99.90;;;;;;4826649;29;20081;-66
2023/08/25 08:43:10;;;;;;;5.85;4.00;;;17.90;99.90;;;;;;4827688;29;20486;-69
2023/08/25 08:45:39;;;;;;;9.05;4.93;;;18.00;99.90;;;;;;4826197;29;20054;-65
2023/08/25 08:48:06;;;;;;;8.02;4.53;;;18.00;99.90;;;;;;4829214;29;20166;-69
2023/08/25 08:50:34;;;;;;;4.72;4.22;;;18.00;99.90;;;;;;4822396;29;20065;-64
2023/08/25 08:53:04;;;;;;;4.47;3.70;;;18.10;99.90;;;;;;4827631;29;20182;-68
2023/08/25 08:55:33;;;;;;;5.85;4.03;;;18.10;99.90;;;;;;4827558;29;20050;-66
2023/08/25 08:58:00;;;;;;;5.07;4.57;;;18.00;99.90;;;;;;4824004;29;20121;-65
2023/08/25 09:00:27;;;;;;;4.93;4.18;;;18.00;99.90;;;;;;4825530;29;20441;-67
2023/08/25 09:02:58;;;;;;;4.15;3.40;;;18.00;99.90;;;;;;4824778;29;21046;-69
2023/08/25 09:05:29;;;;;;;5.78;4.15;;;18.00;99.90;;;;;;4826175;29;20129;-67
2023/08/25 09:08:01;;;;;;;6.28;3.92;;;18.00;99.90;;;;;;4824116;29;20046;-70
2023/08/25 09:10:28;;;;;;;3.90;3.50;;;18.00;99.90;;;;;;4823736;29;20070;-70
2023/08/25 09:12:56;;;;;;;3.92;3.10;;;18.00;99.90;;;;;;4829300;29;20062;-67
2023/08/25 09:15:28;;;;;;;6.35;3.80;;;18.00;99.90;;;;;;4820969;29;20493;-67
2023/08/25 09:18:05;;;;;;;9.13;4.63;;;18.10;99.90;;;;;;4826559;29;20038;-65
2023/08/25 09:20:34;;;;;;;4.00;3.15;;;18.10;99.90;;;;;;4827607;29;20125;-67
2023/08/25 09:23:02;;;;;;;5.00;3.47;;;18.10;99.90;;;;;;4822052;29;20046;-66
2023/08/25 09:25:29;;;;;;;7.18;3.30;;;18.20;99.90;;;;;;4826343;29;20057;-69
2023/08/25 09:27:58;;;;;;;5.05;3.92;;;18.20;99.90;;;;;;4831580;29;20069;-71
2023/08/25 09:30:37;;;;;;;5.03;3.25;;;18.20;99.90;;;;;;4826280;29;20054;-69
2023/08/25 09:33:07;;;;;;;7.22;4.13;;;18.10;99.90;;;;;;4824929;29;20750;-65
2023/08/25 09:35:35;;;;;;;4.35;3.22;;;18.10;99.90;;;;;;4826653;29;20049;-67
2023/08/25 09:38:02;;;;;;;5.57;3.40;;;18.10;99.90;;;;;;4824027;29;20083;-70
2023/08/25 09:40:30;;;;;;;3.30;3.00;;;18.10;99.90;;;;;;4820657;29;20058;-65
2023/08/25 09:43:03;;;;;;;5.35;4.03;;;18.10;99.90;;;;;;4825392;29;20070;-68
2023/08/25 09:45:33;;;;;;;5.70;3.58;;;18.10;99.90;;;;;;4827261;29;20085;-71
2023/08/25 09:48:07;;;;;;;9.13;3.42;;;18.10;99.90;;;;;;4825377;29;20163;-67
2023/08/25 09:50:41;;;;;;;5.55;3.40;;;18.10;99.90;;;;;;4825697;29;20373;-69
2023/08/25 09:53:12;;;;;;;5.68;3.80;;;18.10;99.90;;;;;;4826888;29;20073;-70
2023/08/25 09:55:40;;;;;;;3.50;3.20;;;18.10;99.90;;;;;;4821021;29;20042;-72
2023/08/25 09:58:09;;;;;;;6.93;4.57;;;18.10;99.90;;;;;;4833747;29;20405;-65
2023/08/25 10:00:40;;;;;;;5.50;3.63;;;18.10;99.90;;;;;;4827054;29;20062;-67
2023/08/25 10:03:08;;;;;;;4.78;3.70;;;18.10;99.90;;;;;;4828068;29;20419;-66
2023/08/25 10:05:38;;;;;;;5.03;4.05;;;18.10;99.90;;;;;;4825320;29;20058;-66
2023/08/25 10:08:07;;;;;;;3.72;3.40;;;18.10;99.90;;;;;;4824371;29;20053;-72
2023/08/25 10:10:36;;;;;;;5.73;3.53;;;18.10;99.90;;;;;;4821418;29;20057;-65
2023/08/25 10:13:04;;;;;;;5.13;3.45;;;18.10;99.90;;;;;;4826236;29;20046;-66
2023/08/25 10:15:32;;;;;;;5.90;4.40;;;18.10;99.90;;;;;;4829899;29;20053;-70
2023/08/25 10:18:06;;;;;;;9.98;4.38;;;18.10;99.90;;;;;;4825171;29;20042;-65
2023/08/25 10:20:35;;;;;;;6.63;4.15;;;18.10;99.90;;;;;;4824746;29;20129;-66
2023/08/25 10:23:08;;;;;;;6.13;4.45;;;18.10;99.90;;;;;;4825285;29;20057;-69
2023/08/25 10:25:38;;;;;;;6.00;3.88;;;18.10;99.90;;;;;;4824622;29;20065;-66
2023/08/25 10:28:07;;;;;;;4.13;3.63;;;18.10;99.90;;;;;;4820913;29;20081;-66
2023/08/25 10:30:35;;;;;;;4.65;4.25;;;18.00;99.90;;;;;;4822534;29;20635;-66
2023/08/25 10:33:08;;;;;;;5.15;3.47;;;18.00;99.90;;;;;;4819656;29;20161;-65
2023/08/25 10:35:46;;;;;;;7.28;4.05;;;18.00;99.90;;;;;;4826973;29;20523;-67
2023/08/25 10:38:19;;;;;;;4.30;3.90;;;18.00;99.90;;;;;;4826267;29;20137;-69
2023/08/25 10:40:54;;;;;;;5.32;3.30;;;18.00;99.90;;;;;;4827601;29;20498;-65
2023/08/25 10:43:28;;;;;;;3.95;3.55;;;17.90;99.90;;;;;;4821983;29;20077;-72
2023/08/25 10:46:09;;;;;;;5.13;3.75;;;17.90;99.90;;;;;;4825997;29;20149;-65
2023/08/25 10:48:40;;;;;;;6.30;4.35;;;17.90;99.90;;;;;;4829816;29;20061;-67
2023/08/25 10:51:19;;;;;;;6.15;4.32;;;17.90;99.90;;;;;;4828863;29;20050;-68
2023/08/25 10:53:53;;;;;;;4.32;3.53;;;17.90;99.90;;;;;;4827002;29;20057;-68
2023/08/25 10:56:23;;;;;;;5.65;3.38;;;17.80;99.90;;;;;;4822775;29;20046;-69
2023/08/25 10:59:02;;;;;;;6.30;3.75;;;17.80;99.90;;;;;;4828284;29;20657;-65
2023/08/25 11:01:38;;;;;;;3.75;3.45;;;17.80;99.90;;;;;;4823529;29;20058;-64
2023/08/25 11:04:12;;;;;;;4.40;4.00;;;17.90;99.90;;;;;;4822315;29;20054;-69
2023/08/25 11:06:49;;;;;;;8.15;4.38;;;17.90;99.90;;;;;;4826020;29;20447;-70
2023/08/25 11:09:18;;;;;;;4.78;4.38;;;18.00;99.90;;;;;;4832546;29;20149;-67
2023/08/25 11:11:54;;;;;;;7.18;5.07;;;18.00;99.90;;;;;;4823432;29;20145;-70
2023/08/25 11:14:45;;;;;;;5.63;3.90;;;18.00;99.90;;;;;;4824401;29;20049;-68
2023/08/25 11:17:12;;;;;;;4.60;4.05;;;18.10;99.90;;;;;;4825673;29;20498;-67
2023/08/25 11:19:39;;;;;;;5.97;4.30;;;18.20;99.90;;;;;;4828976;29;20081;-71
2023/08/25 11:22:09;;;;;;;8.63;5.28;;;18.20;99.90;;;;;;4829079;29;20397;-65
2023/08/25 11:24:36;;;;;;;5.27;4.40;;;18.30;99.90;;;;;;4828999;29;20114;-65
2023/08/25 11:27:09;;;;;;;9.55;5.55;;;18.30;99.90;;;;;;4827647;29;20628;-68
2023/08/25 11:29:37;;;;;;;5.60;4.13;;;18.40;99.90;;;;;;4827675;29;20387;-65
2023/08/25 11:32:04;;;;;;;3.30;2.80;;;18.40;99.90;;;;;;4826512;29;20530;-73
2023/08/25 11:34:32;;;;;;;5.00;3.53;;;18.50;99.90;;;;;;4829218;29;20058;-73
2023/08/25 11:36:59;;;;;;;3.38;3.08;;;18.50;99.90;;;;;;4829523;29;20081;-68
2023/08/25 11:39:26;;;;;;;3.78;3.35;;;18.50;99.90;;;;;;4828956;29;20482;-64
2023/08/25 11:41:54;;;;;;;8.20;3.72;;;18.30;99.90;;;;;;4832680;29;20053;-65
2023/08/25 11:44:25;;;;;;;8.45;4.35;;;18.30;99.90;;;;;;4828015;29;20034;-75
2023/08/25 11:46:53;;;;;;;3.92;3.60;;;18.20;99.90;;;;;;4829006;29;20072;-70
2023/08/25 11:49:27;;;;;;;6.30;3.65;;;18.20;99.90;;;;;;4829291;29;20052;-64
2023/08/25 11:51:54;;;;;;;3.83;3.00;;;18.10;99.90;;;;;;4826555;29;20062;-66
2023/08/25 11:54:21;;;;;;;5.57;4.15;;;18.10;99.90;;;;;;4828622;29;20099;-67
2023/08/25 11:56:50;;;;;;;4.03;3.30;;;18.00;99.90;;;;;;4833477;29;20132;-63
2023/08/25 11:59:18;;;;;;;5.38;2.83;;;18.00;99.90;;;;;;4830856;29;20062;-68
2023/08/25 12:01:49;;;;;;;9.05;2.67;;;18.00;99.90;;;;;;4823257;29;20074;-72
2023/08/25 12:04:23;;;;;;;3.83;3.15;;;18.00;99.90;;;;;;4828452;29;20241;-67
2023/08/25 12:06:55;;;;;;;2.17;1.98;;;17.90;99.90;;;;;;4829649;29;20588;-64
2023/08/25 12:09:23;;;;;;;4.22;2.55;;;17.90;99.90;;;;;;4828670;29;20477;-71
2023/08/25 12:11:53;;;;;;;4.88;2.38;;;17.90;99.90;;;;;;4826348;29;20096;-65
2023/08/25 12:14:27;;;;;;;15.07;3.25;;;17.90;99.90;;;;;;4828405;29;20539;-71
2023/08/25 12:16:58;;;;;;;6.18;2.75;;;18.00;99.90;;;;;;4832395;29;20129;-67
2023/08/25 12:19:28;;;;;;;4.85;3.35;;;18.00;99.90;;;;;;4831031;29;20046;-67
2023/08/25 12:21:56;;;;;;;7.13;3.13;;;18.00;99.90;;;;;;4832323;29;20045;-64
2023/08/25 12:24:24;;;;;;;5.03;2.83;;;18.00;99.90;;;;;;4830413;29;20061;-67
2023/08/25 12:26:51;;;;;;;6.70;3.72;;;17.90;99.90;;;;;;4829733;29;20566;-70
2023/08/25 12:29:20;;;;;;;6.15;3.33;;;17.90;99.90;;;;;;4834081;29;20449;-65
2023/08/25 12:31:47;;;;;;;5.90;3.35;;;17.90;99.90;;;;;;4830633;29;20050;-66
2023/08/25 12:34:14;;;;;;;5.72;3.20;;;17.90;99.90;;;;;;4832629;29;20049;-66
2023/08/25 12:36:41;;;;;;;8.23;4.68;;;17.90;99.90;;;;;;4833827;29;20046;-65
2023/08/25 12:39:08;;;;;;;4.25;2.55;;;17.90;99.90;;;;;;4833636;29;20045;-66
2023/08/25 12:41:36;;;;;;;7.65;4.72;;;17.90;99.90;;;;;;4829889;29;20073;-69
2023/08/25 12:44:03;;;;;;;7.43;3.75;;;18.00;99.90;;;;;;4830603;29;20074;-71
2023/08/25 12:46:31;;;;;;;7.65;2.63;;;18.00;99.90;;;;;;4827858;29;20125;-67
2023/08/25 12:48:58;;;;;;;4.07;3.40;;;18.00;99.90;;;;;;4826028;29;20098;-64
2023/08/25 12:51:25;;;;;;;3.60;3.25;;;17.90;99.90;;;;;;4825523;29;20038;-65
2023/08/25 12:53:56;;;;;;;4.10;3.35;;;17.90;99.90;;;;;;4828164;29;20046;-67